sensor_id;sensor_type;location;lat;lon;timestamp;pressure;altitude;pressure_sealevel;temperature;humidity
64876;BME280;51369;49.862;9.908;2023-02-20T00:00:49;99307.91;;;9.84;75.22
64876;BME280;51369;49.862;9.908;2023-02-20T00:03:15;99298.06;;;9.83;74.75
64876;BME280;51369;49.862;9.908;2023-02-20T00:05:41;99299.03;;;9.81;74.85
64876;BME280;51369;49.862;9.908;2023-02-20T00:08:06;99301.75;;;9.79;75.66
64876;BME280;51369;49.862;9.908;2023-02-20T00:10:31;99298.25;;;9.75;75.28
64876;BME280;51369;49.862;9.908;2023-02-20T00:12:57;99285.75;;;9.71;75.18
64876;BME280;51369;49.862;9.908;2023-02-20T00:15:23;99291.28;;;9.67;74.90
64876;BME280;51369;49.862;9.908;2023-02-20T00:17:49;99294.94;;;9.64;75.21
64876;BME280;51369;49.862;9.908;2023-02-20T00:20:20;99292.41;;;9.57;75.33
64876;BME280;51369;49.862;9.908;2023-02-20T00:22:46;99289.75;;;9.55;76.41
64876;BME280;51369;49.862;9.908;2023-02-20T00:25:12;99278.13;;;9.53;76.22
64876;BME280;51369;49.862;9.908;2023-02-20T00:27:37;99261.13;;;9.50;76.14
64876;BME280;51369;49.862;9.908;2023-02-20T00:30:04;99257.63;;;9.46;76.13
64876;BME280;51369;49.862;9.908;2023-02-20T00:32:29;99273.00;;;9.42;76.05
64876;BME280;51369;49.862;9.908;2023-02-20T00:34:55;99272.16;;;9.39;76.07
64876;BME280;51369;49.862;9.908;2023-02-20T00:37:20;99271.25;;;9.40;76.88
64876;BME280;51369;49.862;9.908;2023-02-20T00:39:46;99275.72;;;9.41;76.82
64876;BME280;51369;49.862;9.908;2023-02-20T00:42:12;99251.50;;;9.39;76.62
64876;BME280;51369;49.862;9.908;2023-02-20T00:44:37;99256.94;;;9.38;76.43
64876;BME280;51369;49.862;9.908;2023-02-20T00:47:03;99264.19;;;9.34;76.17
64876;BME280;51369;49.862;9.908;2023-02-20T00:49:28;99259.84;;;9.29;76.09
64876;BME280;51369;49.862;9.908;2023-02-20T00:52:06;99254.56;;;9.24;76.61
64876;BME280;51369;49.862;9.908;2023-02-20T00:54:33;99258.25;;;9.20;76.19
64876;BME280;51369;49.862;9.908;2023-02-20T00:56:59;99254.81;;;9.13;76.00
64876;BME280;51369;49.862;9.908;2023-02-20T00:59:24;99260.28;;;9.09;76.19
64876;BME280;51369;49.862;9.908;2023-02-20T01:01:49;99268.50;;;9.03;77.03
64876;BME280;51369;49.862;9.908;2023-02-20T01:04:15;99281.16;;;8.99;76.25
64876;BME280;51369;49.862;9.908;2023-02-20T01:06:40;99274.94;;;8.96;76.80
64876;BME280;51369;49.862;9.908;2023-02-20T01:09:06;99277.75;;;8.91;76.78
64876;BME280;51369;49.862;9.908;2023-02-20T01:11:31;99277.78;;;8.90;76.66
64876;BME280;51369;49.862;9.908;2023-02-20T01:13:58;99285.00;;;8.88;76.77
64876;BME280;51369;49.862;9.908;2023-02-20T01:16:23;99276.94;;;8.88;77.41
64876;BME280;51369;49.862;9.908;2023-02-20T01:18:50;99284.13;;;8.87;77.38
64876;BME280;51369;49.862;9.908;2023-02-20T01:21:16;99281.47;;;8.86;77.19
64876;BME280;51369;49.862;9.908;2023-02-20T01:23:41;99280.56;;;8.85;77.31
64876;BME280;51369;49.862;9.908;2023-02-20T01:26:07;99276.13;;;8.82;77.18
64876;BME280;51369;49.862;9.908;2023-02-20T01:28:33;99279.78;;;8.80;76.41
64876;BME280;51369;49.862;9.908;2023-02-20T01:31:01;99269.03;;;8.78;76.98
64876;BME280;51369;49.862;9.908;2023-02-20T01:33:27;99273.53;;;8.78;77.15
64876;BME280;51369;49.862;9.908;2023-02-20T01:35:52;99272.69;;;8.76;77.05
64876;BME280;51369;49.862;9.908;2023-02-20T01:38:20;99273.59;;;8.75;76.99
64876;BME280;51369;49.862;9.908;2023-02-20T01:40:47;99261.06;;;8.74;76.35
64876;BME280;51369;49.862;9.908;2023-02-20T01:43:16;99259.28;;;8.73;76.46
64876;BME280;51369;49.862;9.908;2023-02-20T01:45:42;99259.25;;;8.74;76.34
64876;BME280;51369;49.862;9.908;2023-02-20T01:48:34;99246.75;;;8.72;77.16
64876;BME280;51369;49.862;9.908;2023-02-20T01:51:00;99246.69;;;8.75;77.10
64876;BME280;51369;49.862;9.908;2023-02-20T01:53:27;99249.41;;;8.73;77.30
64876;BME280;51369;49.862;9.908;2023-02-20T01:55:58;99256.56;;;8.74;76.97
64876;BME280;51369;49.862;9.908;2023-02-20T01:58:49;99256.53;;;8.76;76.82
64876;BME280;51369;49.862;9.908;2023-02-20T02:01:13;99242.09;;;8.80;77.12
64876;BME280;51369;49.862;9.908;2023-02-20T02:03:42;99245.69;;;8.79;77.62
64876;BME280;51369;49.862;9.908;2023-02-20T02:06:09;99237.59;;;8.80;76.79
64876;BME280;51369;49.862;9.908;2023-02-20T02:08:38;99223.25;;;8.80;77.78
64876;BME280;51369;49.862;9.908;2023-02-20T02:11:19;99214.25;;;8.81;76.91
64876;BME280;51369;49.862;9.908;2023-02-20T02:13:47;99215.09;;;8.83;77.56
64876;BME280;51369;49.862;9.908;2023-02-20T02:33:26;99228.19;;;9.00;76.79
64876;BME280;51369;49.862;9.908;2023-02-20T02:36:22;99232.69;;;8.99;76.92
64876;BME280;51369;49.862;9.908;2023-02-20T02:39:10;99230.84;;;9.01;77.17
64876;BME280;51369;49.862;9.908;2023-02-20T02:41:55;99220.06;;;9.01;76.51
64876;BME280;51369;49.862;9.908;2023-02-20T02:44:32;99216.53;;;8.99;76.98
64876;BME280;51369;49.862;9.908;2023-02-20T02:50:05;99212.22;;;8.91;76.60
64876;BME280;51369;49.862;9.908;2023-02-20T02:52:33;99210.50;;;8.88;76.80
64876;BME280;51369;49.862;9.908;2023-02-20T02:55:27;99209.66;;;8.85;76.84
64876;BME280;51369;49.862;9.908;2023-02-20T02:57:53;99209.78;;;8.80;76.82
64876;BME280;51369;49.862;9.908;2023-02-20T03:00:25;99204.53;;;8.74;76.54
64876;BME280;51369;49.862;9.908;2023-02-20T03:03:09;99206.44;;;8.69;76.58
64876;BME280;51369;49.862;9.908;2023-02-20T03:05:49;99208.38;;;8.64;76.39
64876;BME280;51369;49.862;9.908;2023-02-20T03:08:36;99212.03;;;8.60;76.45
64876;BME280;51369;49.862;9.908;2023-02-20T03:11:12;99207.63;;;8.57;76.54
64876;BME280;51369;49.862;9.908;2023-02-20T03:13:41;99212.16;;;8.55;75.80
64876;BME280;51369;49.862;9.908;2023-02-20T03:16:34;99213.09;;;8.53;76.75
64876;BME280;51369;49.862;9.908;2023-02-20T03:19:06;99210.47;;;8.50;76.11
64876;BME280;51369;49.862;9.908;2023-02-20T03:21:43;99215.00;;;8.47;75.82
64876;BME280;51369;49.862;9.908;2023-02-20T03:24:12;99207.00;;;8.44;75.61
64876;BME280;51369;49.862;9.908;2023-02-20T03:26:40;99203.44;;;8.42;75.79
64876;BME280;51369;49.862;9.908;2023-02-20T03:29:20;99199.03;;;8.38;75.59
64876;BME280;51369;49.862;9.908;2023-02-20T03:32:09;99203.59;;;8.35;75.40
64876;BME280;51369;49.862;9.908;2023-02-20T03:34:56;99200.94;;;8.33;75.79
64876;BME280;51369;49.862;9.908;2023-02-20T03:37:42;99193.81;;;8.29;75.49
64876;BME280;51369;49.862;9.908;2023-02-20T03:40:28;99194.72;;;8.28;75.68
64876;BME280;51369;49.862;9.908;2023-02-20T03:43:17;99193.88;;;8.26;75.85
64876;BME280;51369;49.862;9.908;2023-02-20T03:45:47;99182.22;;;8.26;75.16
64876;BME280;51369;49.862;9.908;2023-02-20T03:48:23;99183.16;;;8.25;75.55
64876;BME280;51369;49.862;9.908;2023-02-20T03:50:52;99175.09;;;8.23;75.02
64876;BME280;51369;49.862;9.908;2023-02-20T03:53:45;99174.25;;;8.21;75.29
64876;BME280;51369;49.862;9.908;2023-02-20T03:56:34;99192.22;;;8.19;75.30
64876;BME280;51369;49.862;9.908;2023-02-20T03:59:06;99193.16;;;8.18;75.35
64876;BME280;51369;49.862;9.908;2023-02-20T04:01:35;99196.75;;;8.17;75.33
64876;BME280;51369;49.862;9.908;2023-02-20T04:04:02;99189.59;;;8.16;74.88
64876;BME280;51369;49.862;9.908;2023-02-20T04:06:30;99195.91;;;8.15;75.01
64876;BME280;51369;49.862;9.908;2023-02-20T04:09:04;99204.00;;;8.13;75.55
64876;BME280;51369;49.862;9.908;2023-02-20T04:11:42;99203.09;;;8.13;74.83
64876;BME280;51369;49.862;9.908;2023-02-20T04:14:10;99201.31;;;8.13;74.82
64876;BME280;51369;49.862;9.908;2023-02-20T04:16:43;99226.41;;;8.14;75.12
64876;BME280;51369;49.862;9.908;2023-02-20T04:19:10;99212.91;;;8.17;74.82
64876;BME280;51369;49.862;9.908;2023-02-20T04:21:42;99219.13;;;8.19;75.25
64876;BME280;51369;49.862;9.908;2023-02-20T04:24:35;99220.88;;;8.22;74.91
64876;BME280;51369;49.862;9.908;2023-02-20T04:27:05;99219.00;;;8.25;74.75
64876;BME280;51369;49.862;9.908;2023-02-20T04:29:34;99218.97;;;8.27;75.14
64876;BME280;51369;49.862;9.908;2023-02-20T04:32:00;99220.75;;;8.28;74.51
64876;BME280;51369;49.862;9.908;2023-02-20T04:34:30;99236.00;;;8.27;74.60
64876;BME280;51369;49.862;9.908;2023-02-20T04:39:34;99224.41;;;8.24;74.45
64876;BME280;51369;49.862;9.908;2023-02-20T04:41:59;99214.59;;;8.21;74.19
64876;BME280;51369;49.862;9.908;2023-02-20T04:44:25;99220.09;;;8.15;74.94
64876;BME280;51369;49.862;9.908;2023-02-20T04:47:00;99234.53;;;8.11;74.10
64876;BME280;51369;49.862;9.908;2023-02-20T04:49:26;99233.75;;;8.04;74.43
64876;BME280;51369;49.862;9.908;2023-02-20T04:51:54;99232.97;;;7.99;74.68
64876;BME280;51369;49.862;9.908;2023-02-20T04:54:20;99244.75;;;7.92;74.71
64876;BME280;51369;49.862;9.908;2023-02-20T04:56:46;99246.63;;;7.87;74.95
64876;BME280;51369;49.862;9.908;2023-02-20T04:59:12;99245.81;;;7.82;74.95
64876;BME280;51369;49.862;9.908;2023-02-20T05:01:37;99250.38;;;7.78;74.53
64876;BME280;51369;49.862;9.908;2023-02-20T05:04:03;99247.72;;;7.75;75.22
64876;BME280;51369;49.862;9.908;2023-02-20T05:06:29;99240.66;;;7.70;74.47
64876;BME280;51369;49.862;9.908;2023-02-20T05:08:55;99247.88;;;7.66;74.81
64876;BME280;51369;49.862;9.908;2023-02-20T05:11:21;99250.63;;;7.63;74.73
64876;BME280;51369;49.862;9.908;2023-02-20T05:13:46;99248.91;;;7.59;75.51
64876;BME280;51369;49.862;9.908;2023-02-20T05:16:11;99254.31;;;7.58;75.29
64876;BME280;51369;49.862;9.908;2023-02-20T05:18:38;99250.78;;;7.54;75.44
64876;BME280;51369;49.862;9.908;2023-02-20T05:21:03;99253.53;;;7.51;74.94
64876;BME280;51369;49.862;9.908;2023-02-20T05:23:48;99240.09;;;7.49;75.77
64876;BME280;51369;49.862;9.908;2023-02-20T05:26:18;99231.22;;;7.46;75.50
64876;BME280;51369;49.862;9.908;2023-02-20T05:28:44;99233.06;;;7.42;75.21
64876;BME280;51369;49.862;9.908;2023-02-20T05:31:10;99230.41;;;7.41;75.41
64876;BME280;51369;49.862;9.908;2023-02-20T05:33:36;99227.75;;;7.38;75.54
64876;BME280;51369;49.862;9.908;2023-02-20T05:36:01;99228.69;;;7.37;75.45
64876;BME280;51369;49.862;9.908;2023-02-20T05:38:27;99219.78;;;7.33;75.64
64876;BME280;51369;49.862;9.908;2023-02-20T05:40:52;99221.63;;;7.30;76.15
64876;BME280;51369;49.862;9.908;2023-02-20T05:43:18;99227.03;;;7.27;76.35
64876;BME280;51369;49.862;9.908;2023-02-20T05:45:43;99218.16;;;7.23;76.19
64876;BME280;51369;49.862;9.908;2023-02-20T05:48:12;99214.63;;;7.19;76.15
64876;BME280;51369;49.862;9.908;2023-02-20T05:50:38;99208.41;;;7.17;75.93
64876;BME280;51369;49.862;9.908;2023-02-20T05:53:04;99217.41;;;7.13;76.38
64876;BME280;51369;49.862;9.908;2023-02-20T05:55:30;99221.88;;;7.13;76.19
64876;BME280;51369;49.862;9.908;2023-02-20T05:57:56;99220.16;;;7.10;76.38
64876;BME280;51369;49.862;9.908;2023-02-20T06:00:22;99211.22;;;7.08;76.24
64876;BME280;51369;49.862;9.908;2023-02-20T06:02:47;99207.66;;;7.08;76.58
64876;BME280;51369;49.862;9.908;2023-02-20T06:05:13;99209.44;;;7.07;76.88
64876;BME280;51369;49.862;9.908;2023-02-20T06:07:39;99206.75;;;7.07;76.67
64876;BME280;51369;49.862;9.908;2023-02-20T06:10:04;99213.09;;;7.03;76.68
64876;BME280;51369;49.862;9.908;2023-02-20T06:12:29;99213.09;;;7.03;76.98
64876;BME280;51369;49.862;9.908;2023-02-20T06:14:55;99224.75;;;7.02;76.82
64876;BME280;51369;49.862;9.908;2023-02-20T06:17:21;99234.59;;;7.02;77.21
64876;BME280;51369;49.862;9.908;2023-02-20T06:19:46;99238.16;;;7.02;77.74
64876;BME280;51369;49.862;9.908;2023-02-20T06:22:11;99244.44;;;7.03;77.19
64876;BME280;51369;49.862;9.908;2023-02-20T06:24:37;99248.91;;;7.02;77.41
64876;BME280;51369;49.862;9.908;2023-02-20T06:27:02;99239.97;;;7.00;77.58
64876;BME280;51369;49.862;9.908;2023-02-20T06:29:28;99238.22;;;6.99;77.35
64876;BME280;51369;49.862;9.908;2023-02-20T06:31:57;99231.09;;;6.97;77.59
64876;BME280;51369;49.862;9.908;2023-02-20T06:34:22;99229.31;;;6.96;77.94
64876;BME280;51369;49.862;9.908;2023-02-20T06:36:50;99221.28;;;6.94;78.31
64876;BME280;51369;49.862;9.908;2023-02-20T06:39:15;99212.34;;;6.94;78.20
64876;BME280;51369;49.862;9.908;2023-02-20T06:41:41;99215.03;;;6.94;78.58
64876;BME280;51369;49.862;9.908;2023-02-20T06:44:07;99231.19;;;6.92;78.39
64876;BME280;51369;49.862;9.908;2023-02-20T06:46:32;99217.75;;;6.92;78.44
64876;BME280;51369;49.862;9.908;2023-02-20T06:48:58;99216.00;;;6.91;78.18
64876;BME280;51369;49.862;9.908;2023-02-20T06:51:29;99221.34;;;6.91;78.44
64876;BME280;51369;49.862;9.908;2023-02-20T06:53:55;99228.44;;;6.94;78.35
64876;BME280;51369;49.862;9.908;2023-02-20T06:56:23;99231.09;;;6.97;78.52
64876;BME280;51369;49.862;9.908;2023-02-20T06:58:50;99217.63;;;7.00;78.28
64876;BME280;51369;49.862;9.908;2023-02-20T07:01:18;99218.47;;;7.03;78.22
64876;BME280;51369;49.862;9.908;2023-02-20T07:03:45;99221.09;;;7.06;77.96
64876;BME280;51369;49.862;9.908;2023-02-20T07:06:11;99221.91;;;7.11;78.59
64876;BME280;51369;49.862;9.908;2023-02-20T07:08:36;99230.84;;;7.13;78.57
64876;BME280;51369;49.862;9.908;2023-02-20T07:11:02;99229.00;;;7.17;78.54
64876;BME280;51369;49.862;9.908;2023-02-20T07:13:28;99224.47;;;7.21;78.12
64876;BME280;51369;49.862;9.908;2023-02-20T07:15:54;99216.34;;;7.24;78.32
64876;BME280;51369;49.862;9.908;2023-02-20T07:18:19;99223.47;;;7.26;78.37
64876;BME280;51369;49.862;9.908;2023-02-20T07:20:50;99221.63;;;7.30;78.56
64876;BME280;51369;49.862;9.908;2023-02-20T07:23:16;99221.53;;;7.36;78.34
64876;BME280;51369;49.862;9.908;2023-02-20T07:25:42;99209.88;;;7.37;78.81
64876;BME280;51369;49.862;9.908;2023-02-20T07:28:07;99204.44;;;7.41;78.15
64876;BME280;51369;49.862;9.908;2023-02-20T07:30:33;99216.00;;;7.45;78.47
64876;BME280;51369;49.862;9.908;2023-02-20T07:32:58;99224.88;;;7.50;78.21
64876;BME280;51369;49.862;9.908;2023-02-20T07:35:24;99223.91;;;7.54;78.47
64876;BME280;51369;49.862;9.908;2023-02-20T07:37:49;99225.63;;;7.58;78.16
64876;BME280;51369;49.862;9.908;2023-02-20T07:40:15;99222.84;;;7.64;78.17
64876;BME280;51369;49.862;9.908;2023-02-20T07:42:40;99234.41;;;7.69;78.05
64876;BME280;51369;49.862;9.908;2023-02-20T07:45:15;99221.75;;;7.76;78.05
64876;BME280;51369;49.862;9.908;2023-02-20T07:47:40;99210.91;;;7.80;77.97
64876;BME280;51369;49.862;9.908;2023-02-20T07:50:06;99217.94;;;7.88;77.20
64876;BME280;51369;49.862;9.908;2023-02-20T07:52:31;99214.25;;;7.93;77.74
64876;BME280;51369;49.862;9.908;2023-02-20T07:54:57;99215.03;;;8.00;77.83
64876;BME280;51369;49.862;9.908;2023-02-20T07:57:22;99205.94;;;8.05;77.56
64876;BME280;51369;49.862;9.908;2023-02-20T07:59:47;99208.53;;;8.11;77.61
64876;BME280;51369;49.862;9.908;2023-02-20T08:02:13;99214.66;;;8.18;77.21
64876;BME280;51369;49.862;9.908;2023-02-20T08:04:38;99219.03;;;8.24;76.57
64876;BME280;51369;49.862;9.908;2023-02-20T08:07:04;99201.94;;;8.26;76.88
64876;BME280;51369;49.862;9.908;2023-02-20T08:09:33;99208.16;;;8.30;76.48
64876;BME280;51369;49.862;9.908;2023-02-20T08:11:58;99208.13;;;8.33;75.98
64876;BME280;51369;49.862;9.908;2023-02-20T08:14:24;99212.53;;;8.37;75.83
64876;BME280;51369;49.862;9.908;2023-02-20T08:16:49;99207.06;;;8.41;76.30
64876;BME280;51369;49.862;9.908;2023-02-20T08:19:15;99208.72;;;8.47;75.53
64876;BME280;51369;49.862;9.908;2023-02-20T08:21:40;99215.78;;;8.53;75.68
64876;BME280;51369;49.862;9.908;2023-02-20T08:24:06;99212.97;;;8.59;75.92
64876;BME280;51369;49.862;9.908;2023-02-20T08:26:32;99207.41;;;8.66;75.87
64876;BME280;51369;49.862;9.908;2023-02-20T08:28:59;99202.72;;;8.74;76.05
64876;BME280;51369;49.862;9.908;2023-02-20T08:31:24;99196.28;;;8.81;75.19
64876;BME280;51369;49.862;9.908;2023-02-20T08:33:51;99200.56;;;8.90;75.69
64876;BME280;51369;49.862;9.908;2023-02-20T08:36:16;99192.34;;;8.96;74.64
64876;BME280;51369;49.862;9.908;2023-02-20T08:38:43;99196.59;;;9.06;75.17
64876;BME280;51369;49.862;9.908;2023-02-20T08:41:10;99184.66;;;9.18;75.12
64876;BME280;51369;49.862;9.908;2023-02-20T08:43:37;99190.63;;;9.31;74.96
64876;BME280;51369;49.862;9.908;2023-02-20T08:46:04;99191.19;;;9.43;75.19
64876;BME280;51369;49.862;9.908;2023-02-20T08:48:30;99185.41;;;9.59;74.54
64876;BME280;51369;49.862;9.908;2023-02-20T08:50:56;99189.53;;;9.73;74.77
64876;BME280;51369;49.862;9.908;2023-02-20T08:53:21;99176.59;;;9.86;73.88
64876;BME280;51369;49.862;9.908;2023-02-20T08:55:47;99185.34;;;9.96;74.29
64876;BME280;51369;49.862;9.908;2023-02-20T08:58:12;99183.25;;;10.05;74.09
64876;BME280;51369;49.862;9.908;2023-02-20T09:00:38;99191.19;;;10.11;73.03
64876;BME280;51369;49.862;9.908;2023-02-20T09:03:04;99173.91;;;10.19;73.45
64876;BME280;51369;49.862;9.908;2023-02-20T09:05:33;99179.13;;;10.26;73.16
64876;BME280;51369;49.862;9.908;2023-02-20T09:07:59;99179.78;;;10.34;72.43
64876;BME280;51369;49.862;9.908;2023-02-20T09:10:24;99173.19;;;10.43;73.02
64876;BME280;51369;49.862;9.908;2023-02-20T09:12:49;99176.50;;;10.53;73.12
64876;BME280;51369;49.862;9.908;2023-02-20T09:15:15;99176.13;;;10.65;72.67
64876;BME280;51369;49.862;9.908;2023-02-20T09:17:47;99181.13;;;10.79;71.70
64876;BME280;51369;49.862;9.908;2023-02-20T09:20:14;99185.22;;;10.92;71.78
64876;BME280;51369;49.862;9.908;2023-02-20T09:22:39;99175.84;;;11.03;71.28
64876;BME280;51369;49.862;9.908;2023-02-20T09:25:05;99173.03;;;11.06;71.72
64876;BME280;51369;49.862;9.908;2023-02-20T09:27:31;99168.28;;;11.15;71.35
64876;BME280;51369;49.862;9.908;2023-02-20T09:29:56;99165.38;;;11.21;70.90
64876;BME280;51369;49.862;9.908;2023-02-20T09:32:22;99169.75;;;11.25;70.78
64876;BME280;51369;49.862;9.908;2023-02-20T09:34:47;99172.25;;;11.31;71.21
64876;BME280;51369;49.862;9.908;2023-02-20T09:37:13;99172.00;;;11.38;71.15
64876;BME280;51369;49.862;9.908;2023-02-20T09:39:38;99165.38;;;11.47;71.01
64876;BME280;51369;49.862;9.908;2023-02-20T09:45:10;99148.44;;;11.68;70.53
64876;BME280;51369;49.862;9.908;2023-02-20T09:51:05;99150.41;;;11.90;69.79
64876;BME280;51369;49.862;9.908;2023-02-20T09:53:26;99141.13;;;11.97;69.09
64876;BME280;51369;49.862;9.908;2023-02-20T09:55:55;99149.75;;;12.08;69.83
64876;BME280;51369;49.862;9.908;2023-02-20T09:58:46;99143.19;;;12.14;68.93
64876;BME280;51369;49.862;9.908;2023-02-20T10:01:13;99135.63;;;12.23;69.71
64876;BME280;51369;49.862;9.908;2023-02-20T10:03:58;99135.50;;;12.26;69.28
64876;BME280;51369;49.862;9.908;2023-02-20T10:06:30;99127.03;;;12.35;69.32
64876;BME280;51369;49.862;9.908;2023-02-20T10:08:56;99133.63;;;12.28;70.05
64876;BME280;51369;49.862;9.908;2023-02-20T10:19:34;99120.91;;;12.54;69.41
64876;BME280;51369;49.862;9.908;2023-02-20T10:22:15;99115.38;;;12.57;67.54
64876;BME280;51369;49.862;9.908;2023-02-20T10:28:10;99103.72;;;12.55;69.75
64876;BME280;51369;49.862;9.908;2023-02-20T10:30:41;99103.28;;;12.65;68.97
64876;BME280;51369;49.862;9.908;2023-02-20T10:35:43;99105.63;;;12.75;68.21
64876;BME280;51369;49.862;9.908;2023-02-20T10:38:13;99103.44;;;12.84;67.76
64876;BME280;51369;49.862;9.908;2023-02-20T10:40:47;99094.81;;;12.96;68.42
64876;BME280;51369;49.862;9.908;2023-02-20T10:43:24;99080.63;;;13.12;68.61
64876;BME280;51369;49.862;9.908;2023-02-20T10:46:13;99092.63;;;13.28;68.61
64876;BME280;51369;49.862;9.908;2023-02-20T10:48:40;99088.66;;;13.37;67.64
64876;BME280;51369;49.862;9.908;2023-02-20T10:51:16;99083.97;;;13.40;67.16
64876;BME280;51369;49.862;9.908;2023-02-20T10:53:48;99089.28;;;13.43;67.11
64876;BME280;51369;49.862;9.908;2023-02-20T10:56:26;99082.91;;;13.44;66.55
64876;BME280;51369;49.862;9.908;2023-02-20T10:59:07;99087.31;;;13.47;67.06
64876;BME280;51369;49.862;9.908;2023-02-20T11:01:36;99075.44;;;13.49;66.74
64876;BME280;51369;49.862;9.908;2023-02-20T11:04:11;99081.75;;;13.50;66.85
64876;BME280;51369;49.862;9.908;2023-02-20T11:06:43;99072.66;;;13.51;65.22
64876;BME280;51369;49.862;9.908;2023-02-20T11:09:09;99061.69;;;13.54;65.40
64876;BME280;51369;49.862;9.908;2023-02-20T11:11:41;99065.88;;;13.61;67.08
64876;BME280;51369;49.862;9.908;2023-02-20T11:14:31;99042.13;;;13.66;66.12
64876;BME280;51369;49.862;9.908;2023-02-20T11:16:59;99026.19;;;13.79;67.36
64876;BME280;51369;49.862;9.908;2023-02-20T11:19:44;99019.34;;;13.89;67.21
64876;BME280;51369;49.862;9.908;2023-02-20T11:22:10;99017.84;;;14.02;67.01
64876;BME280;51369;49.862;9.908;2023-02-20T11:24:37;99020.66;;;14.19;69.33
64876;BME280;51369;49.862;9.908;2023-02-20T11:29:47;99001.31;;;14.46;66.11
64876;BME280;51369;49.862;9.908;2023-02-20T11:32:29;98991.69;;;14.57;67.50
64876;BME280;51369;49.862;9.908;2023-02-20T11:37:28;98981.50;;;14.80;66.99
64876;BME280;51369;49.862;9.908;2023-02-20T11:39:58;98972.50;;;14.96;65.92
64876;BME280;51369;49.862;9.908;2023-02-20T11:42:31;98983.63;;;15.09;66.34
64876;BME280;51369;49.862;9.908;2023-02-20T11:45:24;98986.09;;;15.14;65.98
64876;BME280;51369;49.862;9.908;2023-02-20T11:48:04;98976.59;;;15.22;64.05
64876;BME280;51369;49.862;9.908;2023-02-20T11:50:47;98976.28;;;15.28;63.38
64876;BME280;51369;49.862;9.908;2023-02-20T11:55:44;98976.50;;;15.41;64.86
64876;BME280;51369;49.862;9.908;2023-02-20T11:58:20;98974.34;;;15.48;65.28
64876;BME280;51369;49.862;9.908;2023-02-20T12:00:48;98973.31;;;15.50;61.60
64876;BME280;51369;49.862;9.908;2023-02-20T12:03:21;98964.19;;;15.51;65.01
64876;BME280;51369;49.862;9.908;2023-02-20T12:05:47;98965.47;;;15.44;59.77
64876;BME280;51369;49.862;9.908;2023-02-20T12:08:52;98960.97;;;15.43;62.59
64876;BME280;51369;49.862;9.908;2023-02-20T12:11:21;98950.97;;;15.44;63.05
64876;BME280;51369;49.862;9.908;2023-02-20T12:13:48;98950.72;;;15.48;65.51
64876;BME280;51369;49.862;9.908;2023-02-20T12:24:06;98922.56;;;15.49;65.92
64876;BME280;51369;49.862;9.908;2023-02-20T12:26:50;98927.19;;;15.47;65.91
64876;BME280;51369;49.862;9.908;2023-02-20T12:32:23;98914.94;;;15.56;63.47
64876;BME280;51369;49.862;9.908;2023-02-20T12:46:17;98907.31;;;15.95;64.02
64876;BME280;51369;49.862;9.908;2023-02-20T12:56:51;98884.38;;;16.15;64.23
64876;BME280;51369;49.862;9.908;2023-02-20T12:59:34;98888.88;;;16.16;61.91
64876;BME280;51369;49.862;9.908;2023-02-20T13:02:40;98872.25;;;16.21;65.57
64876;BME280;51369;49.862;9.908;2023-02-20T13:05:19;98871.38;;;16.20;60.75
64876;BME280;51369;49.862;9.908;2023-02-20T13:07:52;98868.38;;;16.25;63.83
64876;BME280;51369;49.862;9.908;2023-02-20T13:10:33;98868.47;;;16.23;61.59
64876;BME280;51369;49.862;9.908;2023-02-20T13:13:00;98867.16;;;16.31;62.38
64876;BME280;51369;49.862;9.908;2023-02-20T13:15:53;98856.16;;;16.32;61.85
64876;BME280;51369;49.862;9.908;2023-02-20T13:18:36;98850.44;;;16.37;61.29
64876;BME280;51369;49.862;9.908;2023-02-20T13:21:10;98855.72;;;16.40;62.94
64876;BME280;51369;49.862;9.908;2023-02-20T13:23:37;98853.59;;;16.45;62.49
64876;BME280;51369;49.862;9.908;2023-02-20T13:29:19;98836.69;;;16.54;60.23
64876;BME280;51369;49.862;9.908;2023-02-20T13:31:50;98843.44;;;16.63;62.43
64876;BME280;51369;49.862;9.908;2023-02-20T13:36:48;98840.13;;;16.73;64.28
64876;BME280;51369;49.862;9.908;2023-02-20T13:47:00;98825.59;;;16.73;59.92
64876;BME280;51369;49.862;9.908;2023-02-20T13:54:56;98805.94;;;16.82;63.54
64876;BME280;51369;49.862;9.908;2023-02-20T13:57:23;98797.97;;;16.79;62.25
64876;BME280;51369;49.862;9.908;2023-02-20T13:59:50;98798.16;;;16.76;58.86
64876;BME280;51369;49.862;9.908;2023-02-20T14:02:19;98784.59;;;16.74;59.90
64876;BME280;51369;49.862;9.908;2023-02-20T14:05:06;98779.16;;;16.74;60.35
64876;BME280;51369;49.862;9.908;2023-02-20T14:07:44;98778.19;;;16.75;59.15
64876;BME280;51369;49.862;9.908;2023-02-20T14:12:45;98757.75;;;16.82;61.34
64876;BME280;51369;49.862;9.908;2023-02-20T14:15:11;98760.75;;;16.78;61.00
64876;BME280;51369;49.862;9.908;2023-02-20T14:17:40;98757.34;;;16.74;61.36
64876;BME280;51369;49.862;9.908;2023-02-20T14:20:17;98759.56;;;16.68;59.52
64876;BME280;51369;49.862;9.908;2023-02-20T14:22:43;98743.41;;;16.65;60.88
64876;BME280;51369;49.862;9.908;2023-02-20T14:27:38;98742.06;;;16.56;61.40
64876;BME280;51369;49.862;9.908;2023-02-20T14:30:12;98728.81;;;16.50;61.08
64876;BME280;51369;49.862;9.908;2023-02-20T14:32:46;98740.97;;;16.44;61.05
64876;BME280;51369;49.862;9.908;2023-02-20T14:35:26;98733.16;;;16.38;61.91
64876;BME280;51369;49.862;9.908;2023-02-20T14:40:23;98718.25;;;16.30;60.59
64876;BME280;51369;49.862;9.908;2023-02-20T14:42:51;98721.25;;;16.25;63.23
64876;BME280;51369;49.862;9.908;2023-02-20T14:45:25;98719.97;;;16.16;63.87
64876;BME280;51369;49.862;9.908;2023-02-20T14:47:58;98719.53;;;16.08;62.36
64876;BME280;51369;49.862;9.908;2023-02-20T14:50:28;98717.09;;;16.04;62.76
64876;BME280;51369;49.862;9.908;2023-02-20T14:53:12;98723.94;;;15.95;62.92
64876;BME280;51369;49.862;9.908;2023-02-20T14:55:38;98717.22;;;15.86;62.38
64876;BME280;51369;49.862;9.908;2023-02-20T14:58:12;98723.09;;;15.79;64.12
64876;BME280;51369;49.862;9.908;2023-02-20T15:00:40;98728.13;;;15.71;63.67
64876;BME280;51369;49.862;9.908;2023-02-20T15:03:18;98708.44;;;15.66;61.66
64876;BME280;51369;49.862;9.908;2023-02-20T15:05:44;98704.75;;;15.67;62.11
64876;BME280;51369;49.862;9.908;2023-02-20T15:08:21;98724.88;;;15.64;61.65
64876;BME280;51369;49.862;9.908;2023-02-20T15:10:49;98729.16;;;15.68;61.76